Time;durP1;ratioP1;P1;durP2;ratioP2;P2;SDS_P1;SDS_P2;PMS_P1;PMS_P2;Temp;Humidity;BMP_temperature;BMP_pressure;BME280_temperature;BME280_humidity;BME280_pressure;Samples;Min_cycle;Max_cycle;Signal;HPM_P1;HPM_P2
2022/01/20 00:00:43;;;;;;;8.18;7.42;;;;;;;2.90;83.30;100026.72;1577847;89;20954;-72
2022/01/20 00:03:10;;;;;;;10.05;9.03;;;;;;;2.90;83.30;100025.86;1575884;89;21420;-73
2022/01/20 00:08:10;;;;;;;12.50;8.40;;;;;;;2.86;83.34;100035.20;1581849;89;21424;-73
2022/01/20 00:27:05;;;;;;;10.82;9.70;;;;;;;2.76;83.62;100020.67;1582849;89;20110;-73
2022/01/20 00:29:30;;;;;;;11.68;9.33;;;;;;;2.76;83.59;100020.67;1588892;89;20971;-73
2022/01/20 00:32:15;;;;;;;11.55;9.95;;;;;;;2.76;83.60;100010.47;1598669;87;21431;-73
2022/01/20 00:34:42;;;;;;;11.95;10.70;;;;;;;2.78;83.59;100017.71;1593681;89;20935;-73
2022/01/20 00:39:39;;;;;;;14.73;10.80;;;;;;;2.78;83.67;100015.16;1577848;89;21447;-73
2022/01/20 00:42:05;;;;;;;13.30;9.53;;;;;;;2.79;83.66;100016.02;1595443;88;20955;-73
2022/01/20 00:44:31;;;;;;;;;;;;;;;2.81;83.65;100009.22;1599026;88;21463;-72
2022/01/20 00:46:57;;;;;;;11.70;9.53;;;;;;;2.83;83.74;100011.36;1584403;88;20235;-73
2022/01/20 00:49:24;;;;;;;65.12;34.27;;;;;;;2.84;83.72;100011.36;1560736;90;21205;-73
2022/01/20 00:51:50;;;;;;;97.77;51.17;;;;;;;2.85;83.68;100003.28;1580725;89;21116;-73
2022/01/20 00:54:16;;;;;;;196.33;175.77;;;;;;;2.79;84.09;99990.48;1596056;88;21170;-73
2022/01/20 00:56:44;;;;;;;14.73;11.60;;;;;;;2.79;84.09;99990.48;1599767;88;21421;-72
2022/01/20 00:59:10;;;;;;;12.40;10.80;;;;;;;2.89;83.79;99999.90;1547051;90;21018;-72
2022/01/20 01:01:37;;;;;;;15.75;12.25;;;;;;;2.89;83.74;99996.92;1570766;90;21710;-72
2022/01/20 01:04:03;;;;;;;12.87;10.33;;;;;;;2.90;83.79;99999.05;1594173;88;21071;-72
2022/01/20 01:08:55;;;;;;;19.15;12.65;;;;;;;2.91;83.78;100001.62;1599604;88;21082;-72
2022/01/20 01:11:22;;;;;;;63.00;51.45;;;;;;;2.93;83.75;100008.86;1584978;88;21517;-72
2022/01/20 01:13:50;;;;;;;71.72;62.85;;;;;;;2.93;83.77;100013.11;1594208;88;21807;-72
2022/01/20 01:16:18;;;;;;;64.25;58.78;;;;;;;2.93;83.77;100008.86;1610110;88;21017;-72
2022/01/20 01:21:43;;;;;;;10.63;9.53;;;;;;;2.94;83.75;99999.08;1592348;88;21592;-72
2022/01/20 01:23:58;;;;;;;10.90;9.80;;;;;;;2.93;83.78;99989.70;1581883;88;21101;-72
2022/01/20 01:26:27;;;;;;;10.48;9.03;;;;;;;2.91;83.77;99988.84;1596087;87;21632;-72
2022/01/20 01:28:53;;;;;;;11.95;7.15;;;;;;;2.90;83.82;99996.50;1591401;88;21061;-72
2022/01/20 01:31:38;;;;;;;38.80;15.78;;;;;;;2.89;83.80;99996.92;1583969;88;21070;-72
2022/01/20 01:34:08;;;;;;;6.30;4.80;;;;;;;2.88;83.73;99986.28;1582486;88;21612;-72
2022/01/20 01:36:46;;;;;;;6.58;3.85;;;;;;;2.85;83.65;99995.63;1585955;88;21093;-72
2022/01/20 01:39:00;;;;;;;6.70;4.50;;;;;;;2.80;83.70;99981.55;1589486;88;21830;-72
2022/01/20 01:41:31;;;;;;;6.92;3.83;;;;;;;2.77;83.70;99986.64;1609094;88;21647;-72
2022/01/20 01:43:55;;;;;;;5.83;3.52;;;;;;;2.74;83.69;99986.63;1578124;89;20999;-72
2022/01/20 01:46:21;;;;;;;4.50;3.42;;;;;;;2.72;83.78;99975.98;1579368;89;21458;-72
2022/01/20 01:48:48;;;;;;;66.28;46.90;;;;;;;2.69;83.76;99960.22;1588999;89;21118;-72
2022/01/20 01:51:14;;;;;;;64.92;59.55;;;;;;;2.63;83.56;99953.38;1585399;89;20923;-72
2022/01/20 01:53:41;;;;;;;5.17;3.30;;;;;;;2.59;83.77;99958.07;1583674;89;21118;-72
2022/01/20 01:56:07;;;;;;;4.45;3.90;;;;;;;2.55;83.81;99956.77;1591376;89;20915;-72
2022/01/20 01:58:34;;;;;;;;;;;;;;;2.52;83.80;99957.60;1586748;89;21408;-72
2022/01/20 02:01:00;;;;;;;5.53;5.03;;;;;;;2.48;83.91;99957.58;1600627;89;20432;-72
2022/01/20 02:03:28;;;;;;;6.53;5.47;;;;;;;2.47;83.92;99947.79;1602759;88;21482;-72
2022/01/20 02:08:49;;;;;;;70.50;64.22;;;;;;;2.48;84.04;99948.22;1583855;89;21098;-72
2022/01/20 02:19:12;;;;;;;11.43;6.78;;;;;;;2.61;84.13;99959.33;1600169;89;20983;-72
2022/01/20 02:21:54;;;;;;;7.80;5.72;;;;;;;2.64;84.11;99967.85;1574802;91;21404;-72
2022/01/20 02:24:21;;;;;;;9.85;4.70;;;;;;;2.65;84.00;99992.53;1570469;90;22059;-72
2022/01/20 02:26:47;;;;;;;;;;;;;;;2.63;83.89;99972.52;1549117;90;20917;-72
2022/01/20 02:29:14;;;;;;;81.47;32.70;;;;;;;2.59;83.85;99973.38;1592349;87;20733;-72
2022/01/20 02:31:40;;;;;;;38.40;34.70;;;;;;;2.52;83.75;99971.64;1587709;88;21471;-72
2022/01/20 02:34:12;;;;;;;5.70;2.70;;;;;;;2.46;83.66;99970.75;1576721;89;21102;-72
2022/01/20 02:36:41;;;;;;;7.42;2.40;;;;;;;2.40;83.65;99963.05;1581926;89;21129;-72
2022/01/20 02:39:24;;;;;;;6.28;2.17;;;;;;;2.33;83.63;99973.63;1578998;89;21625;-72
2022/01/20 02:47:12;;;;;;;9.63;1.85;;;;;;;2.23;83.59;99962.94;1581729;89;21089;-72
2022/01/20 02:49:38;;;;;;;8.15;1.85;;;;;;;2.21;83.50;99973.55;1579248;89;21785;-72
2022/01/20 02:52:06;;;;;;;102.05;73.90;;;;;;;2.18;83.53;99971.83;1575718;89;21763;-72
2022/01/20 02:54:33;;;;;;;2.98;1.47;;;;;;;2.14;83.48;99966.69;1578675;89;21089;-72
2022/01/20 02:56:59;;;;;;;6.45;1.80;;;;;;;2.13;83.48;99951.81;1593860;89;21090;-72
2022/01/20 02:59:25;;;;;;;;;;;;;;;2.08;83.46;99957.30;1577706;89;21482;-72
2022/01/20 03:01:51;;;;;;;7.90;1.77;;;;;;;2.04;83.30;99961.11;1577761;89;20208;-72
2022/01/20 03:04:17;;;;;;;5.10;1.63;;;;;;;1.97;83.34;99968.72;1577086;89;21046;-72
2022/01/20 03:06:44;;;;;;;5.60;1.80;;;;;;;1.92;83.35;99955.50;1575549;89;21523;-72
2022/01/20 03:09:09;;;;;;;7.35;1.75;;;;;;;1.87;83.37;99961.83;1575555;89;21633;-72
2022/01/20 03:11:35;;;;;;;137.85;104.30;;;;;;;1.84;83.37;99955.43;1594137;89;21574;-72
2022/01/20 03:14:02;;;;;;;158.70;144.30;;;;;;;1.83;83.33;99958.81;1595047;89;21565;-72
2022/01/20 03:16:28;;;;;;;9.78;1.87;;;;;;;1.83;83.36;99954.14;1586793;89;21722;-72
2022/01/20 03:18:54;;;;;;;11.33;2.40;;;;;;;1.82;83.41;99954.56;1591399;89;21620;-72
2022/01/20 03:21:25;;;;;;;11.55;1.65;;;;;;;1.82;83.43;99955.83;1575460;89;21142;-72
2022/01/20 03:23:51;;;;;;;10.03;1.80;;;;;;;1.82;83.42;99955.83;1577885;89;21584;-72
2022/01/20 03:26:18;;;;;;;5.42;2.35;;;;;;;1.83;83.43;99948.63;1580003;89;20918;-72
2022/01/20 03:28:44;;;;;;;7.30;2.87;;;;;;;1.84;83.41;99947.78;1576298;89;21573;-72
2022/01/20 03:31:10;;;;;;;20.60;14.63;;;;;;;1.88;83.42;99953.77;1579250;89;21643;-72
2022/01/20 03:33:36;;;;;;;12.95;2.72;;;;;;;1.88;83.40;99955.89;1577453;89;21569;-72
2022/01/20 03:36:03;;;;;;;12.60;1.72;;;;;;;1.89;83.36;99961.84;1579904;89;21573;-72
2022/01/20 03:38:29;;;;;;;;;;;;;;;1.90;83.32;99950.80;1596812;89;21513;-72
2022/01/20 03:40:55;;;;;;;7.17;1.55;;;;;;;1.90;83.25;99947.84;1586951;89;20827;-72
2022/01/20 03:43:21;;;;;;;15.57;2.40;;;;;;;1.89;83.25;99938.90;1584513;89;20967;-72
2022/01/20 03:45:50;;;;;;;17.07;2.67;;;;;;;1.86;83.23;99941.00;1585107;89;21549;-72
2022/01/20 03:48:17;;;;;;;5.62;1.50;;;;;;;1.83;83.14;99933.75;1599717;88;21665;-72
2022/01/20 03:53:19;;;;;;;39.00;25.48;;;;;;;1.73;83.05;99930.27;1557421;89;21122;-72
2022/01/20 03:55:47;;;;;;;7.95;1.87;;;;;;;1.70;83.02;99937.03;1587723;87;21655;-72
2022/01/20 03:58:13;;;;;;;9.08;2.00;;;;;;;1.67;83.00;99931.48;1591589;89;24702;-72
2022/01/20 04:00:39;;;;;;;7.12;2.60;;;;;;;1.62;82.92;99927.63;1575558;89;21443;-72
2022/01/20 04:03:06;;;;;;;6.67;1.72;;;;;;;1.61;82.89;99928.88;1578701;89;21549;-72
2022/01/20 04:05:32;;;;;;;11.28;1.70;;;;;;;1.58;82.88;99923.34;1579352;89;21628;-72
2022/01/20 04:07:59;;;;;;;5.10;1.37;;;;;;;1.54;82.89;99929.28;1577560;89;21613;-72
2022/01/20 04:10:25;;;;;;;8.90;2.07;;;;;;;1.49;82.83;99922.01;1593826;89;20947;-72
2022/01/20 04:12:51;;;;;;;6.47;2.02;;;;;;;1.46;82.81;99928.77;1580937;89;21967;-72
2022/01/20 04:15:24;;;;;;;4.87;1.80;;;;;;;1.47;82.86;99939.39;1577037;89;21030;-72
2022/01/20 04:17:51;;;;;;;8.60;1.82;;;;;;;1.47;82.86;99933.02;1576258;89;21473;-72
2022/01/20 04:20:16;;;;;;;7.62;2.65;;;;;;;1.46;82.81;99919.85;1575039;89;21161;-73
2022/01/20 04:22:42;;;;;;;11.70;2.92;;;;;;;1.45;82.81;99916.87;1590169;89;21086;-73
2022/01/20 04:25:08;;;;;;;10.45;3.05;;;;;;;1.44;82.71;99902.42;1575588;89;21553;-73
2022/01/20 04:27:34;;;;;;;8.70;2.30;;;;;;;1.42;82.70;99913.02;1575548;89;21195;-73
2022/01/20 04:30:00;;;;;;;17.80;3.02;;;;;;;1.40;82.63;99921.06;1580198;89;21003;-73
2022/01/20 04:32:26;;;;;;;13.58;2.90;;;;;;;1.40;82.61;99919.80;1576093;89;21606;-72
2022/01/20 04:34:52;;;;;;;15.23;3.47;;;;;;;1.40;82.71;99924.89;1576856;89;21810;-72
2022/01/20 04:37:19;;;;;;;17.10;5.58;;;;;;;1.40;82.73;99910.45;1594026;89;21577;-72
2022/01/20 04:39:48;;;;;;;19.67;4.75;;;;;;;1.43;82.71;99908.36;1601514;88;21223;-72
2022/01/20 04:42:12;;;;;;;13.48;3.60;;;;;;;1.46;82.72;99905.84;1599635;87;21462;-72
2022/01/20 04:44:53;;;;;;;19.03;4.93;;;;;;;1.47;82.69;99902.03;1593270;87;21601;-72
2022/01/20 04:47:25;;;;;;;;;;;;;;;1.49;82.66;99900.78;1577102;89;21602;-72
2022/01/20 04:57:56;;;;;;;6.97;1.95;;;;;;;1.57;82.71;99877.05;1583211;89;21073;-72
2022/01/20 05:00:22;;;;;;;7.53;2.00;;;;;;;1.61;82.69;99880.05;1597249;88;21149;-72
2022/01/20 05:02:48;;;;;;;10.08;2.02;;;;;;;1.61;82.66;99878.78;1567671;89;21590;-72
2022/01/20 05:05:14;;;;;;;79.65;68.90;;;;;;;1.61;82.62;99869.86;1568658;89;21174;-72
2022/01/20 05:07:41;;;;;;;6.15;1.40;;;;;;;1.62;82.54;99863.06;1589513;88;21686;-72
2022/01/20 05:10:11;;;;;;;11.43;2.87;;;;;;;1.63;82.62;99859.68;1575577;89;21584;-72
2022/01/20 05:15:22;;;;;;;6.58;1.47;;;;;;;1.66;82.49;99872.02;1581984;89;21190;-72
2022/01/20 05:17:49;;;;;;;8.30;1.72;;;;;;;1.68;82.66;99863.12;1575738;89;21528;-73
2022/01/20 05:20:15;;;;;;;6.08;1.47;;;;;;;1.70;82.62;99875.45;1575472;89;25975;-73
2022/01/20 05:22:41;;;;;;;8.85;2.08;;;;;;;1.73;82.51;99880.99;1593227;88;20967;-73
2022/01/20 05:25:09;;;;;;;7.65;2.30;;;;;;;1.76;82.50;99901.41;1589391;89;21625;-73
2022/01/20 05:27:35;;;;;;;11.63;2.65;;;;;;;1.77;82.50;99917.13;1587938;89;21546;-73
2022/01/20 05:30:01;;;;;;;8.70;1.47;;;;;;;1.68;82.49;99925.97;1583034;89;20959;-72
2022/01/20 05:32:28;;;;;;;6.17;1.98;;;;;;;1.53;82.63;99941.58;1585394;89;20923;-72
2022/01/20 05:34:54;;;;;;;;;;;;;;;1.43;82.78;99944.88;1599422;87;21574;-72
2022/01/20 05:37:20;;;;;;;5.03;1.45;;;;;;;1.36;82.78;99948.20;1595100;88;20199;-72
2022/01/20 05:39:46;;;;;;;6.35;1.50;;;;;;;1.29;82.72;99929.45;1580219;89;20979;-73
2022/01/20 05:42:12;;;;;;;3.58;1.00;;;;;;;1.23;82.62;99953.58;1582925;89;20985;-73
2022/01/20 05:44:38;;;;;;;2.80;0.72;;;;;;;1.15;82.46;99932.27;1584237;88;20995;-73
2022/01/20 05:47:09;;;;;;;30.47;23.63;;;;;;;1.05;82.29;99928.33;1608808;88;20955;-73
2022/01/20 05:49:33;;;;;;;1.17;0.60;;;;;;;0.97;82.27;99935.48;1597000;87;20883;-72
2022/01/20 05:51:58;;;;;;;;;;;;;;;0.89;82.31;99952.78;1566514;90;21485;-72
2022/01/20 05:54:25;;;;;;;2.70;0.60;;;;;;;0.82;82.17;99953.12;1553471;90;20762;-72
2022/01/20 05:56:51;;;;;;;4.50;0.90;;;;;;;0.78;82.17;99946.28;1553543;90;20928;-72
2022/01/20 05:59:17;;;;;;;;;;;;;;;0.73;82.11;99968.27;1578543;89;21401;-72
2022/01/20 06:01:51;;;;;;;1.65;0.78;;;;;;;0.69;82.02;99969.06;1566418;89;20883;-72
2022/01/20 06:04:18;;;;;;;4.50;0.70;;;;;;;0.68;82.06;99968.62;1556961;90;21814;-72
2022/01/20 06:06:44;;;;;;;4.17;0.80;;;;;;;0.65;82.08;99959.26;1569845;90;21422;-72
2022/01/20 06:09:10;;;;;;;2.55;0.68;;;;;;;0.64;82.06;99938.88;1563016;89;21425;-72
2022/01/20 06:11:39;;;;;;;2.20;0.70;;;;;;;0.64;81.96;99934.66;1575842;90;20937;-72
2022/01/20 06:14:05;;;;;;;2.67;0.55;;;;;;;0.62;81.90;99941.83;1575012;89;20900;-72
2022/01/20 06:16:32;;;;;;;3.22;0.98;;;;;;;0.61;81.86;99937.16;1541532;90;20934;-72
2022/01/20 06:18:59;;;;;;;3.05;1.10;;;;;;;0.61;81.88;99943.94;1554659;90;21527;-72
2022/01/20 06:21:24;;;;;;;;;;;;;;;0.62;81.79;99931.23;1569657;90;21747;-72
2022/01/20 06:23:51;;;;;;;3.05;0.68;;;;;;;0.60;81.68;99944.34;1554909;90;20702;-72
2022/01/20 06:26:17;;;;;;;83.37;75.08;;;;;;;0.60;81.88;99939.26;1560048;90;21405;-72
2022/01/20 06:28:43;;;;;;;50.63;24.55;;;;;;;0.59;81.73;99929.92;1555491;90;21555;-72
2022/01/20 06:31:10;;;;;;;8.55;1.27;;;;;;;0.59;81.75;99929.06;1553046;90;21591;-72
2022/01/20 06:33:36;;;;;;;3.77;1.40;;;;;;;0.60;81.73;99934.59;1576006;89;21091;-72
2022/01/20 06:36:03;;;;;;;3.95;1.05;;;;;;;0.61;81.68;99938.84;1564065;90;28774;-72
2022/01/20 06:38:29;;;;;;;;;;;;;;;0.62;81.62;99936.73;1555489;91;21628;-72
2022/01/20 06:40:55;;;;;;;5.58;1.12;;;;;;;0.62;81.50;99928.69;1590158;87;20199;-72
2022/01/20 06:43:22;;;;;;;6.00;1.00;;;;;;;0.61;81.64;99933.34;1602767;87;21098;-72
2022/01/20 06:45:48;;;;;;;5.30;1.05;;;;;;;0.60;81.54;99937.98;1608592;87;21397;-72
2022/01/20 06:48:14;;;;;;;7.00;1.40;;;;;;;0.62;81.53;99936.32;1578269;87;21671;-72
2022/01/20 06:50:40;;;;;;;1.80;0.90;;;;;;;0.62;81.47;99930.38;1582427;87;21090;-72
2022/01/20 06:53:07;;;;;;;5.50;1.10;;;;;;;0.61;81.46;99933.34;1595436;88;21720;-72
2022/01/20 06:55:34;;;;;;;7.35;1.02;;;;;;;0.63;81.47;99926.58;1589286;87;21058;-72
2022/01/20 06:58:00;;;;;;;92.82;83.27;;;;;;;0.64;81.47;99924.89;1602423;87;20959;-72
2022/01/20 07:00:27;;;;;;;6.20;0.98;;;;;;;0.64;81.40;99934.66;1585058;89;21597;-72
2022/01/20 07:02:54;;;;;;;2.98;1.22;;;;;;;0.65;81.26;99932.55;1573466;89;21435;-72
2022/01/20 07:05:22;;;;;;;4.08;0.90;;;;;;;0.68;81.35;99925.37;1559587;90;21422;-72
2022/01/20 07:07:49;;;;;;;1.77;0.72;;;;;;;0.71;81.29;99932.19;1565471;89;21582;-72
2022/01/20 07:10:17;;;;;;;;;;;;;;;0.72;81.33;99934.75;1601361;89;20982;-72
2022/01/20 07:12:44;;;;;;;5.85;1.52;;;;;;;0.72;80.89;99938.56;1604352;89;20102;-72
2022/01/20 07:15:12;;;;;;;5.25;1.15;;;;;;;0.71;81.12;99936.86;1583904;87;21500;-72
2022/01/20 07:17:38;;;;;;;17.57;13.00;;;;;;;0.70;81.07;99947.87;1584141;89;21550;-72
2022/01/20 07:20:06;;;;;;;3.60;1.02;;;;;;;0.69;80.92;99949.98;1584528;89;21468;-72
2022/01/20 07:22:32;;;;;;;3.70;1.20;;;;;;;0.71;81.05;99952.12;1591941;89;21801;-72
2022/01/20 07:24:58;;;;;;;2.72;1.10;;;;;;;0.72;81.02;99961.47;1587151;89;20864;-72
2022/01/20 07:27:24;;;;;;;3.20;0.82;;;;;;;0.66;80.84;99965.20;1577901;89;21479;-72
2022/01/20 07:29:52;;;;;;;2.62;1.02;;;;;;;0.66;80.84;99965.20;1585973;87;43693;-72
2022/01/20 07:32:18;;;;;;;10.85;2.20;;;;;;;0.75;80.85;99999.67;1546735;91;21013;-72
2022/01/20 07:34:44;;;;;;;1.97;0.90;;;;;;;0.67;80.77;100016.52;1528876;91;20961;-72
2022/01/20 07:37:10;;;;;;;3.10;0.93;;;;;;;0.29;80.87;100021.06;1523740;92;21430;-72
2022/01/20 07:39:36;;;;;;;3.77;1.62;;;;;;;-0.01;81.05;100007.05;1523016;92;21458;-72
2022/01/20 07:42:03;;;;;;;17.10;14.58;;;;;;;-0.16;81.28;100005.52;1513052;93;20960;-72
2022/01/20 07:44:29;;;;;;;3.80;1.02;;;;;;;-0.23;81.41;100002.84;1541927;92;20936;-72
2022/01/20 07:46:55;;;;;;;2.50;0.72;;;;;;;-0.30;81.47;99994.67;1570857;90;20974;-72
2022/01/20 07:49:21;;;;;;;5.87;1.95;;;;;;;-0.34;81.52;99989.95;1550588;90;21598;-72
2022/01/20 07:51:47;;;;;;;7.10;0.88;;;;;;;-0.36;81.58;100000.50;1582572;89;21562;-72
2022/01/20 07:54:13;;;;;;;5.35;0.88;;;;;;;-0.38;81.53;100000.47;1553000;90;20903;-72
2022/01/20 07:56:39;;;;;;;3.52;1.30;;;;;;;-0.39;81.57;100009.33;1561407;90;21459;-72
2022/01/20 07:59:06;;;;;;;4.47;1.02;;;;;;;-0.37;81.58;100012.75;1564844;90;21113;-72
2022/01/20 08:01:33;;;;;;;3.90;1.17;;;;;;;-0.35;81.48;100002.20;1569108;90;20951;-72
2022/01/20 08:03:59;;;;;;;57.65;53.73;;;;;;;-0.36;81.41;100009.38;1578154;90;20933;-72
2022/01/20 08:06:25;;;;;;;7.40;1.50;;;;;;;-0.35;81.39;100017.45;1560935;90;21625;-72
2022/01/20 08:08:52;;;;;;;3.27;0.90;;;;;;;-0.35;81.36;100019.58;1566216;90;20955;-72
2022/01/20 08:11:21;;;;;;;87.67;71.15;;;;;;;-0.34;81.29;100021.70;1545161;90;21562;-72
2022/01/20 08:13:47;;;;;;;2.77;1.07;;;;;;;-0.31;81.23;100017.95;1559362;90;21488;-72
2022/01/20 08:16:14;;;;;;;4.55;1.00;;;;;;;-0.29;81.17;100037.02;1559567;90;22338;-73
2022/01/20 08:18:40;;;;;;;5.67;1.25;;;;;;;-0.24;81.22;100021.45;1538030;91;21100;-73
2022/01/20 08:21:06;;;;;;;2.40;1.00;;;;;;;-0.21;81.06;100029.98;1574362;90;21499;-72
2022/01/20 08:23:32;;;;;;;2.55;0.98;;;;;;;-0.16;81.04;100032.61;1570212;90;28292;-72
2022/01/20 08:25:59;;;;;;;4.78;1.05;;;;;;;-0.10;81.14;100032.30;1537942;90;21112;-72
2022/01/20 08:28:25;;;;;;;3.95;1.07;;;;;;;-0.04;80.91;100036.22;1558008;90;20954;-72
2022/01/20 08:30:52;;;;;;;2.30;0.80;;;;;;;0.01;80.91;100042.62;1564637;90;21498;-72
2022/01/20 08:33:18;;;;;;;;;;;;;;;0.03;80.76;100042.65;1577550;90;21014;-72
2022/01/20 08:35:45;;;;;;;3.05;0.75;;;;;;;0.07;80.70;100045.69;1575166;90;20831;-72
2022/01/20 08:38:11;;;;;;;3.55;1.57;;;;;;;0.10;80.72;100057.17;1569161;90;21449;-72
2022/01/20 08:40:38;;;;;;;2.37;1.12;;;;;;;0.13;80.50;100050.45;1562525;90;21442;-72
2022/01/20 08:43:06;;;;;;;;;;;;;;;0.17;80.55;100059.84;1574041;90;21233;-72
2022/01/20 08:45:34;;;;;;;2.05;0.65;;;;;;;0.20;80.21;100059.05;1560014;90;20468;-72
2022/01/20 08:48:00;;;;;;;3.17;1.10;;;;;;;0.20;80.25;100057.36;1513511;93;21034;-72
2022/01/20 08:50:29;;;;;;;1.87;0.70;;;;;;;0.20;80.32;100061.17;1529605;92;21552;-72
2022/01/20 08:52:56;;;;;;;2.65;0.70;;;;;;;0.22;80.45;100064.59;1569454;90;20935;-72
2022/01/20 08:55:26;;;;;;;3.67;1.00;;;;;;;0.24;80.23;100060.81;1521746;93;21507;-72
2022/01/20 08:57:54;;;;;;;2.67;0.90;;;;;;;0.23;80.28;100056.55;1524185;92;21010;-72
2022/01/20 09:00:21;;;;;;;5.50;0.88;;;;;;;0.23;80.32;100053.59;1545996;91;21028;-72
2022/01/20 09:02:47;;;;;;;4.67;0.93;;;;;;;0.23;80.35;100051.47;1560553;90;21413;-72
2022/01/20 09:05:14;;;;;;;5.78;1.27;;;;;;;0.21;80.26;100053.13;1537610;90;21007;-73
2022/01/20 09:07:40;;;;;;;3.52;0.85;;;;;;;0.19;80.09;100058.61;1569042;90;20932;-73
2022/01/20 09:10:08;;;;;;;2.62;0.75;;;;;;;0.18;80.18;100048.00;1567171;90;25680;-72
2022/01/20 09:17:50;;;;;;;1.02;0.55;;;;;;;0.20;80.08;100058.63;1571301;90;21131;-72
2022/01/20 09:20:17;;;;;;;1.98;0.72;;;;;;;0.23;80.17;100055.28;1565110;90;21046;-72
2022/01/20 09:22:43;;;;;;;;;;;;;;;0.26;80.10;100048.98;1563360;90;21584;-72
2022/01/20 09:25:10;;;;;;;1.67;0.60;;;;;;;0.27;80.04;100081.20;1559248;90;20869;-72
2022/01/20 09:27:36;;;;;;;2.62;1.20;;;;;;;0.29;80.00;100074.45;1559567;90;21403;-72
2022/01/20 09:30:04;;;;;;;4.57;0.83;;;;;;;0.28;79.76;100092.67;1552808;90;21292;-72
2022/01/20 09:32:35;;;;;;;1.15;0.62;;;;;;;0.28;79.86;100107.92;1557839;90;21227;-72
2022/01/20 09:35:00;;;;;;;2.35;0.70;;;;;;;0.26;79.47;100095.59;1533212;93;20966;-72
2022/01/20 09:37:28;;;;;;;1.07;0.60;;;;;;;0.25;79.53;100100.66;1523848;92;21007;-72
2022/01/20 09:39:54;;;;;;;3.52;0.80;;;;;;;0.27;79.54;100105.36;1547551;91;21044;-72
2022/01/20 09:42:21;;;;;;;3.80;1.02;;;;;;;0.31;79.65;100113.48;1564918;90;21660;-72
2022/01/20 09:44:48;;;;;;;15.08;6.90;;;;;;;0.35;79.73;100102.95;1569025;90;21499;-72
2022/01/20 09:47:16;;;;;;;3.27;1.20;;;;;;;0.41;79.73;100095.00;1556947;90;20956;-72
2022/01/20 09:49:43;;;;;;;0.68;0.50;;;;;;;0.47;79.57;100095.10;1556286;90;21416;-72
2022/01/20 09:52:09;;;;;;;3.15;1.07;;;;;;;0.51;79.74;100096.87;1557634;90;21032;-72
2022/01/20 09:54:37;;;;;;;4.20;1.12;;;;;;;0.51;79.48;100079.06;1567497;90;21451;-72
2022/01/20 09:57:04;;;;;;;5.17;1.10;;;;;;;0.44;79.44;100088.70;1575063;89;20948;-72
2022/01/20 09:59:31;;;;;;;4.62;0.88;;;;;;;0.40;79.60;100096.25;1557833;89;20980;-72
2022/01/20 10:01:58;;;;;;;4.30;1.10;;;;;;;0.40;79.55;100098.80;1584581;89;21033;-72
2022/01/20 10:04:31;;;;;;;4.97;0.98;;;;;;;0.43;79.62;100103.93;1569762;89;21511;-72
2022/01/20 10:07:09;;;;;;;2.33;0.72;;;;;;;0.46;79.54;100097.63;1549053;90;21517;-72
2022/01/20 10:09:46;;;;;;;6.17;0.70;;;;;;;0.47;79.18;100081.11;1542930;91;20992;-72
2022/01/20 10:12:16;;;;;;;4.33;0.80;;;;;;;0.50;79.02;100093.03;1521307;92;21033;-72
2022/01/20 10:14:50;;;;;;;4.70;1.30;;;;;;;0.54;79.22;100093.48;1553873;89;20940;-72
2022/01/20 10:17:27;;;;;;;3.02;0.80;;;;;;;0.58;79.08;100096.52;1572132;90;21363;-72
2022/01/20 10:19:58;;;;;;;4.35;1.27;;;;;;;0.65;79.24;100090.28;1568588;89;21509;-72
2022/01/20 10:22:24;;;;;;;5.05;1.45;;;;;;;0.78;79.33;100085.38;1566927;90;21421;-72
2022/01/20 10:25:08;;;;;;;4.15;1.30;;;;;;;0.92;79.20;100081.34;1561456;90;48685;-72
2022/01/20 10:27:51;;;;;;;8.93;1.52;;;;;;;1.05;79.27;100090.84;1556220;90;21445;-72
2022/01/20 10:30:19;;;;;;;3.25;1.20;;;;;;;1.11;78.79;100076.92;1544849;91;20972;-72
2022/01/20 10:32:49;;;;;;;4.33;1.17;;;;;;;1.09;78.71;100081.55;1518070;92;21512;-72
2022/01/20 10:35:18;;;;;;;3.37;1.12;;;;;;;1.07;78.52;100080.67;1519569;91;21094;-72
2022/01/20 10:38:16;;;;;;;63.23;39.42;;;;;;;1.02;78.53;100070.46;1547491;90;20960;-72
2022/01/20 10:40:59;;;;;;;2.77;1.22;;;;;;;0.98;78.64;100070.84;1559559;90;20952;-72
2022/01/20 10:43:29;;;;;;;4.17;1.05;;;;;;;0.90;78.55;100098.28;1548014;91;21001;-72
2022/01/20 10:46:10;;;;;;;4.00;1.07;;;;;;;0.78;78.38;100097.69;1515414;92;21006;-72
2022/01/20 10:48:36;;;;;;;2.87;0.80;;;;;;;0.66;78.84;100121.25;1518812;93;21003;-72
2022/01/20 10:51:02;;;;;;;3.45;1.32;;;;;;;0.54;79.00;100107.06;1530715;92;21992;-72
2022/01/20 10:53:28;;;;;;;2.65;1.60;;;;;;;0.46;78.85;100092.53;1527121;92;21456;-72
2022/01/20 10:56:06;;;;;;;23.53;21.30;;;;;;;0.37;79.02;100083.06;1534267;92;20980;-72
2022/01/20 10:58:32;;;;;;;5.40;1.22;;;;;;;0.37;79.02;100083.06;1556120;90;21425;-72
2022/01/20 11:01:00;;;;;;;4.10;3.05;;;;;;;0.39;79.10;100087.77;1573052;89;21009;-72
2022/01/20 11:03:27;;;;;;;2.98;1.20;;;;;;;0.42;79.11;100076.37;1567117;90;21506;-72
2022/01/20 11:05:56;;;;;;;2.20;1.05;;;;;;;0.42;79.02;100072.97;1551871;90;20988;-72
2022/01/20 11:08:23;;;;;;;3.02;0.95;;;;;;;0.42;79.05;100094.17;1553383;90;20985;-72
2022/01/20 11:10:51;;;;;;;6.22;1.17;;;;;;;0.40;79.03;100080.58;1573287;89;21012;-72
2022/01/20 11:13:20;;;;;;;3.77;1.00;;;;;;;0.36;78.97;100090.25;1567828;90;21500;-72
2022/01/20 11:15:46;;;;;;;4.45;1.65;;;;;;;0.33;78.93;100084.70;1579902;89;21597;-72
2022/01/20 11:18:13;;;;;;;3.60;0.98;;;;;;;0.33;79.07;100082.58;1567073;90;20977;-72
2022/01/20 11:20:44;;;;;;;6.08;1.50;;;;;;;0.29;78.91;100087.17;1559081;90;20914;-72
2022/01/20 11:23:10;;;;;;;36.05;33.13;;;;;;;0.26;79.09;100076.53;1569680;90;21393;-72
2022/01/20 11:25:40;;;;;;;5.87;4.42;;;;;;;0.25;79.05;100067.19;1562495;90;21600;-72
2022/01/20 11:28:14;;;;;;;7.35;1.47;;;;;;;0.27;78.97;100062.12;1546443;91;21012;-72
2022/01/20 11:30:53;;;;;;;6.28;1.35;;;;;;;0.29;78.93;100069.38;1531176;93;20991;-72
2022/01/20 11:33:21;;;;;;;4.33;1.25;;;;;;;0.35;79.06;100063.11;1568490;90;20964;-72
2022/01/20 11:35:54;;;;;;;4.25;1.07;;;;;;;0.43;78.79;100068.33;1561940;89;21485;-72
2022/01/20 11:38:23;;;;;;;5.35;1.60;;;;;;;0.49;78.89;100060.38;1543999;90;20986;-72
2022/01/20 11:41:03;;;;;;;3.77;1.30;;;;;;;0.63;78.98;100058.87;1511448;93;20973;-72
2022/01/20 11:43:39;;;;;;;4.87;0.90;;;;;;;0.82;78.95;100065.50;1517009;92;21017;-72
2022/01/20 11:46:13;;;;;;;96.70;89.60;;;;;;;0.99;78.93;100058.97;1533358;92;21420;-72
2022/01/20 11:48:57;;;;;;;6.12;1.35;;;;;;;1.11;78.89;100047.64;1529418;92;21470;-72
2022/01/20 11:51:48;;;;;;;8.75;1.87;;;;;;;1.17;78.70;100048.14;1564913;89;20949;-72
2022/01/20 11:54:39;;;;;;;7.25;2.17;;;;;;;1.16;78.54;100058.73;1547710;91;21413;-72
2022/01/20 11:57:15;;;;;;;4.72;1.80;;;;;;;1.13;78.57;100090.53;1525874;93;21379;-72
2022/01/20 11:59:46;;;;;;;6.50;2.70;;;;;;;0.95;78.55;100097.94;1551907;91;20972;-72
2022/01/20 12:02:32;;;;;;;7.25;1.90;;;;;;;0.70;78.63;100096.71;1513108;94;21161;-72
2022/01/20 12:05:02;;;;;;;7.15;1.47;;;;;;;0.56;78.87;100101.58;1524082;92;21423;-72
2022/01/20 12:07:33;;;;;;;435.52;165.00;;;;;;;0.46;78.95;100083.22;1526051;92;21471;-72
2022/01/20 12:10:15;;;;;;;127.20;114.15;;;;;;;0.37;79.06;100058.05;1502844;92;21486;-72
2022/01/20 12:12:43;;;;;;;4.05;1.50;;;;;;;0.31;79.02;100065.16;1532294;92;21057;-72
2022/01/20 12:15:15;;;;;;;9.10;2.42;;;;;;;0.29;79.18;100070.23;1537241;92;21445;-72
2022/01/20 12:17:50;;;;;;;4.75;1.20;;;;;;;0.31;79.22;100062.20;1574369;90;21144;-72
2022/01/20 12:20:17;;;;;;;5.10;2.83;;;;;;;0.33;79.16;100060.96;1559568;90;21513;-72
2022/01/20 12:22:45;;;;;;;7.42;3.20;;;;;;;0.36;79.07;100075.41;1557723;90;20980;-72
2022/01/20 12:25:26;;;;;;;8.75;3.83;;;;;;;0.37;78.96;100072.89;1567730;90;21062;-72
2022/01/20 12:28:08;;;;;;;6.42;4.58;;;;;;;0.39;79.03;100072.51;1561092;90;21158;-72
2022/01/20 12:30:39;;;;;;;9.75;2.95;;;;;;;0.47;79.05;100080.26;1532046;90;21807;-72
2022/01/20 12:33:12;;;;;;;4.97;4.20;;;;;;;0.56;79.04;100071.47;1564231;90;21140;-72
2022/01/20 12:35:49;;;;;;;4.42;1.85;;;;;;;0.61;78.92;100074.94;1535858;91;21102;-72
2022/01/20 12:38:35;;;;;;;34.05;31.80;;;;;;;0.68;78.81;100055.54;1550099;91;20993;-72
2022/01/20 12:41:06;;;;;;;36.20;33.65;;;;;;;0.79;78.80;100065.46;1545669;91;22405;-72
2022/01/20 12:43:57;;;;;;;9.90;6.03;;;;;;;0.92;78.65;100038.08;1542301;91;20936;-72